createdAt,value
2023-01-11T00:01:38.082Z,3.20
2023-01-11T00:06:40.621Z,2.70
2023-01-11T00:11:43.512Z,2.10
2023-01-11T00:16:46.156Z,3.10
2023-01-11T00:21:49.677Z,3.10
2023-01-11T00:26:52.405Z,4.00
2023-01-11T00:31:55.187Z,2.70
2023-01-11T00:36:58.186Z,2.20
2023-01-11T00:42:19.632Z,2.80
2023-01-11T00:47:41.093Z,2.40
2023-01-11T00:52:43.586Z,1.90
2023-01-11T00:57:46.289Z,2.30
2023-01-11T01:02:49.970Z,2.00
2023-01-11T01:07:52.704Z,2.70
2023-01-11T01:13:14.078Z,2.80
2023-01-11T01:18:16.692Z,2.50
2023-01-11T01:23:19.209Z,2.30
2023-01-11T01:28:22.352Z,3.10
2023-01-11T01:33:25.165Z,2.40
2023-01-11T01:38:28.333Z,2.30
2023-01-11T01:43:51.654Z,2.40
2023-01-11T01:49:01.871Z,2.20
2023-01-11T01:54:08.308Z,1.90
2023-01-11T01:59:15.527Z,1.90
2023-01-11T02:04:26.664Z,2.20
2023-01-11T02:09:38.816Z,2.00
2023-01-11T02:14:43.176Z,1.80
2023-01-11T02:20:17.824Z,2.00
2023-01-11T02:25:52.598Z,2.00
2023-01-11T02:31:16.096Z,1.90
2023-01-11T02:36:37.746Z,2.30
2023-01-11T02:42:17.900Z,2.00
2023-01-11T02:47:30.226Z,2.10
2023-01-11T02:52:39.899Z,2.00
2023-01-11T02:57:44.960Z,2.20
2023-01-11T03:02:47.509Z,1.90
2023-01-11T03:08:31.160Z,1.70
2023-01-11T03:14:01.589Z,1.50
2023-01-11T03:19:26.283Z,1.70
2023-01-11T03:24:45.781Z,1.50
2023-01-11T03:30:07.881Z,1.70
2023-01-11T03:35:37.852Z,1.60
2023-01-11T03:40:46.649Z,1.60
2023-01-11T03:46:05.543Z,1.30
2023-01-11T03:51:12.533Z,1.70
2023-01-11T03:56:20.207Z,1.60
2023-01-11T04:01:24.560Z,1.60
2023-01-11T04:06:27.178Z,1.30
2023-01-11T04:11:29.790Z,1.30
2023-01-11T04:16:32.343Z,1.70
2023-01-11T04:21:35.051Z,1.40
2023-01-11T04:26:37.588Z,1.20
2023-01-11T04:31:40.222Z,1.40
2023-01-11T04:36:42.810Z,1.40
2023-01-11T04:42:04.214Z,1.20
2023-01-11T04:47:06.719Z,1.20
2023-01-11T04:52:14.713Z,1.50
2023-01-11T04:57:17.689Z,1.50
2023-01-11T05:02:20.371Z,1.70
2023-01-11T05:07:22.923Z,1.70
2023-01-11T05:12:25.498Z,1.40
2023-01-11T05:17:28.241Z,2.20
2023-01-11T05:22:30.868Z,1.40
2023-01-11T05:27:33.599Z,1.30
2023-01-11T05:32:36.306Z,1.20
2023-01-11T05:37:39.013Z,1.50
2023-01-11T05:42:41.689Z,1.30
2023-01-11T05:47:44.188Z,1.40
2023-01-11T05:52:47.128Z,1.70
2023-01-11T05:57:51.079Z,1.20
2023-01-11T06:02:54.259Z,1.50
2023-01-11T06:07:57.225Z,1.30
2023-01-11T06:13:18.669Z,1.30
2023-01-11T06:18:21.527Z,1.30
2023-01-11T06:23:25.605Z,1.20
2023-01-11T06:28:28.230Z,1.20
2023-01-11T06:33:31.454Z,1.40
2023-01-11T06:38:34.925Z,1.90
2023-01-11T06:43:42.210Z,1.20
2023-01-11T06:48:46.241Z,1.70
2023-01-11T06:53:48.829Z,1.40
2023-01-11T06:58:52.605Z,1.50
2023-01-11T07:03:55.470Z,1.30
2023-01-11T07:08:58.541Z,1.30
2023-01-11T07:14:01.146Z,1.30
2023-01-11T07:19:03.736Z,1.50
2023-01-11T07:24:06.494Z,1.90
2023-01-11T07:29:09.195Z,1.40
2023-01-11T07:34:12.195Z,1.50
2023-01-11T07:39:15.489Z,1.30
2023-01-11T07:44:18.463Z,1.20
2023-01-11T07:49:21.278Z,1.10
2023-01-11T07:54:24.795Z,1.00
2023-01-11T07:59:27.330Z,1.10
2023-01-11T08:04:30.236Z,1.60
2023-01-11T08:09:32.847Z,1.80
2023-01-11T08:14:41.323Z,1.10
2023-01-11T08:19:43.950Z,1.20
2023-01-11T08:24:46.620Z,1.30
2023-01-11T08:29:49.176Z,1.10
2023-01-11T08:34:51.739Z,1.50
2023-01-11T08:39:55.941Z,1.40
2023-01-11T08:44:58.626Z,1.20
2023-01-11T08:50:01.213Z,1.60
2023-01-11T08:55:07.693Z,1.60
2023-01-11T09:00:11.312Z,1.50
2023-01-11T09:05:13.942Z,1.60
2023-01-11T09:10:16.516Z,2.00
2023-01-11T09:15:19.631Z,2.00
2023-01-11T09:20:23.873Z,1.60
2023-01-11T09:25:26.578Z,1.80
2023-01-11T09:30:29.349Z,1.90
2023-01-11T09:35:32.006Z,1.60
2023-01-11T09:40:49.374Z,1.50
2023-01-11T09:45:53.183Z,1.70
2023-01-11T09:50:57.722Z,1.70
2023-01-11T09:56:05.079Z,1.70
2023-01-11T10:01:46.215Z,1.60
2023-01-11T10:07:12.480Z,1.50
2023-01-11T10:18:49.341Z,1.60
2023-01-11T10:24:12.076Z,2.00
2023-01-11T10:29:30.314Z,1.60
2023-01-11T10:34:52.389Z,2.30
2023-01-11T10:40:39.833Z,2.00
2023-01-11T10:45:50.754Z,2.80
2023-01-11T10:51:17.759Z,1.70
2023-01-11T10:57:02.953Z,1.50
2023-01-11T11:02:13.534Z,1.90
2023-01-11T11:07:25.991Z,1.90
2023-01-11T11:12:31.700Z,1.90
2023-01-11T11:17:36.925Z,2.20
2023-01-11T11:22:39.483Z,2.10
2023-01-11T11:27:47.727Z,2.00
2023-01-11T11:32:59.797Z,1.70
2023-01-11T11:43:22.235Z,1.60
2023-01-11T11:48:27.408Z,1.70
2023-01-11T11:53:35.503Z,1.50
2023-01-11T11:58:41.147Z,1.70
2023-01-11T12:03:43.836Z,1.90
2023-01-11T12:08:46.487Z,2.00
2023-01-11T12:14:02.176Z,2.30
2023-01-11T12:19:50.677Z,1.90
2023-01-11T12:25:05.867Z,1.90
2023-01-11T12:30:46.452Z,2.10
2023-01-11T12:36:03.147Z,2.10
2023-01-11T12:41:42.663Z,1.90
2023-01-11T12:47:04.199Z,2.00
2023-01-11T12:52:12.696Z,1.90
2023-01-11T12:57:34.092Z,2.10
2023-01-11T13:02:55.090Z,1.50
2023-01-11T13:08:16.387Z,1.50
2023-01-11T13:13:29.803Z,1.80
2023-01-11T13:18:59.380Z,1.70
2023-01-11T13:24:12.369Z,2.20
2023-01-11T13:29:37.708Z,1.80
2023-01-11T13:34:47.547Z,1.60
2023-01-11T13:39:57.034Z,1.40
2023-01-11T13:45:09.248Z,2.90
2023-01-11T13:56:09.841Z,1.80
2023-01-11T14:01:17.564Z,1.60
2023-01-11T14:06:42.006Z,1.70
2023-01-11T14:12:05.429Z,1.30
2023-01-11T14:17:24.579Z,1.60
2023-01-11T14:22:41.347Z,1.70
2023-01-11T14:27:59.192Z,1.80
2023-01-11T14:33:36.710Z,1.80
2023-01-11T14:39:15.722Z,2.10
2023-01-11T14:44:32.914Z,2.10
2023-01-11T14:49:57.959Z,1.90
2023-01-11T14:55:05.348Z,1.80
2023-01-11T15:00:34.311Z,1.00
2023-01-11T15:05:54.648Z,1.00
2023-01-11T15:11:02.233Z,1.20
2023-01-11T15:16:28.370Z,1.30
2023-01-11T15:21:35.627Z,1.60
2023-01-11T15:26:48.730Z,1.40
2023-01-11T15:31:54.266Z,1.30
2023-01-11T15:36:59.939Z,1.70
2023-01-11T15:42:16.167Z,1.40
2023-01-11T15:47:42.605Z,1.00
2023-01-11T15:53:17.749Z,1.30
2023-01-11T15:58:45.723Z,1.30
2023-01-11T16:04:00.412Z,1.60
2023-01-11T16:09:41.968Z,1.80
2023-01-11T16:14:56.501Z,2.10
2023-01-11T16:20:18.934Z,2.10
2023-01-11T16:25:25.045Z,2.10
2023-01-11T16:30:28.811Z,2.70
2023-01-11T16:35:31.344Z,3.30
2023-01-11T16:40:37.752Z,2.70
2023-01-11T16:45:43.543Z,3.60
2023-01-11T16:50:50.994Z,3.70
2023-01-11T16:56:09.588Z,2.50
2023-01-11T17:01:15.327Z,1.90
2023-01-11T17:06:22.038Z,2.10
2023-01-11T17:11:39.574Z,2.20
2023-01-11T17:16:49.093Z,2.20
2023-01-11T17:22:05.279Z,2.50
2023-01-11T17:27:18.454Z,3.40
2023-01-11T17:32:35.565Z,4.00
2023-01-11T17:37:39.072Z,3.70
2023-01-11T17:43:00.161Z,3.20
2023-01-11T17:48:12.934Z,3.00
2023-01-11T17:53:20.977Z,4.00
2023-01-11T17:58:28.773Z,4.60
2023-01-11T18:03:38.940Z,7.10
2023-01-11T18:08:47.899Z,6.60
2023-01-11T18:13:52.890Z,6.30
2023-01-11T18:18:56.021Z,5.30
2023-01-11T18:24:07.792Z,5.10
2023-01-11T18:29:42.289Z,4.60
2023-01-11T18:34:48.068Z,5.60
2023-01-11T18:39:52.383Z,6.10
2023-01-11T18:44:55.119Z,5.50
2023-01-11T18:49:58.029Z,5.10
2023-01-11T18:55:00.589Z,4.80
2023-01-11T19:00:03.683Z,5.10
2023-01-11T19:05:09.995Z,4.60
2023-01-11T19:10:19.241Z,4.50
2023-01-11T19:15:21.808Z,4.90
2023-01-11T19:20:24.690Z,4.60
2023-01-11T19:25:28.336Z,5.70
2023-01-11T19:30:31.394Z,4.60
2023-01-11T19:35:33.951Z,4.10
2023-01-11T19:40:36.634Z,5.00
2023-01-11T19:45:39.325Z,4.90
2023-01-11T19:50:42.072Z,6.00
2023-01-11T19:55:44.721Z,5.80
2023-01-11T20:00:47.418Z,7.50
2023-01-11T20:05:50.430Z,5.70
2023-01-11T20:10:53.705Z,6.60
2023-01-11T20:15:56.337Z,5.40
2023-01-11T20:20:59.350Z,5.90
2023-01-11T20:26:04.440Z,5.40
2023-01-11T20:31:07.850Z,6.00
2023-01-11T20:36:16.208Z,4.50
2023-01-11T20:41:41.667Z,3.20
2023-01-11T20:46:47.873Z,5.10
2023-01-11T20:51:51.016Z,4.50
2023-01-11T20:56:53.755Z,4.70
2023-01-11T21:01:56.353Z,4.20
2023-01-11T21:06:58.967Z,4.30
2023-01-11T21:12:01.587Z,3.60
2023-01-11T21:17:04.269Z,4.00
2023-01-11T21:22:07.610Z,3.40
2023-01-11T21:27:10.573Z,4.00
2023-01-11T21:32:13.165Z,3.90
2023-01-11T21:37:15.864Z,3.70
2023-01-11T21:42:19.183Z,3.90
2023-01-11T21:47:22.279Z,3.40
2023-01-11T21:52:25.010Z,4.00
2023-01-11T21:57:27.698Z,3.70
2023-01-11T22:02:30.240Z,4.30
2023-01-11T22:07:33.389Z,4.60
2023-01-11T22:12:36.143Z,4.50
2023-01-11T22:17:39.101Z,4.80
2023-01-11T22:22:41.851Z,4.30
2023-01-11T22:27:44.526Z,5.00
2023-01-11T22:32:47.975Z,5.20
2023-01-11T22:37:50.663Z,4.90
2023-01-11T22:42:53.274Z,4.80
2023-01-11T22:47:59.179Z,5.40
2023-01-11T22:53:02.217Z,5.20
2023-01-11T22:58:05.083Z,5.40
2023-01-11T23:03:07.912Z,5.30
2023-01-11T23:08:10.768Z,5.30
2023-01-11T23:13:32.209Z,6.10
2023-01-11T23:18:34.724Z,5.20
2023-01-11T23:23:40.409Z,5.30
2023-01-11T23:28:43.025Z,5.10
2023-01-11T23:33:51.869Z,5.20
2023-01-11T23:38:54.398Z,4.60
2023-01-11T23:43:57.895Z,5.10
2023-01-11T23:49:03.807Z,4.90
2023-01-11T23:54:06.997Z,4.80
2023-01-11T23:59:09.792Z,4.90
